createdAt,value
2023-04-11T00:00:55.901Z,717.00
2023-04-11T00:01:55.988Z,709.00
2023-04-11T00:02:56.088Z,724.00
2023-04-11T00:03:57.034Z,725.00
2023-04-11T00:04:55.939Z,722.00
2023-04-11T00:05:55.869Z,719.00
2023-04-11T00:06:55.867Z,721.00
2023-04-11T00:07:55.860Z,715.00
2023-04-11T00:08:55.991Z,703.00
2023-04-11T00:09:55.848Z,718.00
2023-04-11T00:10:55.841Z,723.00
2023-04-11T00:11:55.834Z,709.00
2023-04-11T00:12:55.828Z,715.00
2023-04-11T00:13:55.824Z,718.00
2023-04-11T00:14:55.837Z,714.00
2023-04-11T00:15:56.004Z,715.00
2023-04-11T00:16:55.858Z,705.00
2023-04-11T00:17:55.858Z,712.00
2023-04-11T00:18:55.973Z,702.00
2023-04-11T00:19:55.836Z,707.00
2023-04-11T00:20:55.890Z,707.00
2023-04-11T00:21:55.861Z,705.00
2023-04-11T00:22:55.856Z,706.00
2023-04-11T00:23:55.836Z,707.00
2023-04-11T00:24:55.841Z,703.00
2023-04-11T00:25:55.828Z,702.00
2023-04-11T00:26:55.829Z,705.00
2023-04-11T00:27:55.800Z,707.00
2023-04-11T00:28:56.225Z,709.00
2023-04-11T00:29:55.792Z,703.00
2023-04-11T00:30:55.807Z,701.00
2023-04-11T00:31:55.819Z,695.00
2023-04-11T00:32:55.817Z,701.00
2023-04-11T00:33:55.775Z,695.00
2023-04-11T00:34:55.758Z,706.00
2023-04-11T00:35:55.799Z,702.00
2023-04-11T00:36:55.774Z,701.00
2023-04-11T00:37:55.744Z,690.00
2023-04-11T00:38:56.006Z,698.00
2023-04-11T00:39:55.746Z,695.00
2023-04-11T00:40:55.751Z,693.00
2023-04-11T00:41:55.749Z,682.00
2023-04-11T00:42:55.756Z,683.00
2023-04-11T00:43:55.754Z,679.00
2023-04-11T00:44:55.763Z,690.00
2023-04-11T00:45:55.823Z,675.00
2023-04-11T00:46:55.821Z,699.00
2023-04-11T00:47:55.919Z,681.00
2023-04-11T00:48:56.147Z,676.00
2023-04-11T00:49:55.957Z,684.00
2023-04-11T00:50:55.935Z,685.00
2023-04-11T00:51:55.939Z,685.00
2023-04-11T00:52:55.911Z,688.00
2023-04-11T00:53:55.932Z,691.00
2023-04-11T00:54:55.907Z,675.00
2023-04-11T00:55:55.911Z,685.00
2023-04-11T00:56:55.904Z,678.00
2023-04-11T00:57:55.898Z,687.00
2023-04-11T00:58:56.115Z,673.00
2023-04-11T00:59:55.903Z,681.00
2023-04-11T01:00:55.956Z,666.00
2023-04-11T01:01:55.983Z,683.00
2023-04-11T01:02:55.943Z,670.00
2023-04-11T01:03:56.061Z,682.00
2023-04-11T01:04:55.857Z,674.00
2023-04-11T01:05:55.826Z,671.00
2023-04-11T01:06:55.825Z,667.00
2023-04-11T01:07:55.802Z,669.00
2023-04-11T01:08:55.908Z,665.00
2023-04-11T01:09:55.770Z,662.00
2023-04-11T01:10:55.752Z,662.00
2023-04-11T01:11:55.750Z,662.00
2023-04-11T01:12:55.785Z,661.00
2023-04-11T01:13:55.740Z,667.00
2023-04-11T01:14:55.701Z,663.00
2023-04-11T01:15:55.698Z,663.00
2023-04-11T01:16:55.747Z,662.00
2023-04-11T01:17:55.805Z,662.00
2023-04-11T01:18:55.851Z,661.00
2023-04-11T01:19:55.657Z,661.00
2023-04-11T01:20:55.631Z,661.00
2023-04-11T01:21:55.646Z,662.00
2023-04-11T01:22:55.620Z,662.00
2023-04-11T01:23:55.608Z,662.00
2023-04-11T01:24:55.586Z,662.00
2023-04-11T01:25:55.607Z,657.00
2023-04-11T01:26:55.565Z,661.00
2023-04-11T01:27:55.553Z,657.00
2023-04-11T01:28:55.701Z,662.00
2023-04-11T01:29:55.511Z,656.00
2023-04-11T01:30:55.556Z,658.00
2023-04-11T01:31:55.484Z,653.00
2023-04-11T01:32:55.493Z,652.00
2023-04-11T01:33:55.450Z,655.00
2023-04-11T01:34:55.438Z,653.00
2023-04-11T01:35:55.471Z,657.00
2023-04-11T01:36:55.412Z,651.00
2023-04-11T01:37:55.412Z,652.00
2023-04-11T01:38:55.771Z,651.00
2023-04-11T01:39:55.373Z,648.00
2023-04-11T01:40:55.344Z,647.00
2023-04-11T01:41:55.346Z,644.00
2023-04-11T01:42:55.326Z,649.00
2023-04-11T01:43:55.320Z,648.00
2023-04-11T01:44:55.292Z,653.00
2023-04-11T01:45:55.279Z,647.00
2023-04-11T01:46:55.264Z,646.00
2023-04-11T01:47:55.310Z,647.00
2023-04-11T01:48:55.598Z,642.00
2023-04-11T01:49:55.219Z,641.00
2023-04-11T01:50:55.197Z,635.00
2023-04-11T01:51:55.189Z,637.00
2023-04-11T01:52:55.189Z,640.00
2023-04-11T01:53:55.157Z,639.00
2023-04-11T01:54:55.161Z,639.00
2023-04-11T01:55:55.124Z,640.00
2023-04-11T01:56:55.130Z,640.00
2023-04-11T01:57:55.097Z,642.00
2023-04-11T01:58:55.269Z,642.00
2023-04-11T01:59:55.076Z,637.00
2023-04-11T02:00:55.063Z,637.00
2023-04-11T02:01:55.112Z,639.00
2023-04-11T02:02:55.124Z,641.00
2023-04-11T02:03:55.153Z,641.00
2023-04-11T02:04:55.002Z,640.00
2023-04-11T02:05:54.981Z,645.00
2023-04-11T02:06:55.000Z,640.00
2023-04-11T02:07:54.989Z,642.00
2023-04-11T02:08:55.250Z,643.00
2023-04-11T02:09:54.913Z,638.00
2023-04-11T02:10:54.910Z,630.00
2023-04-11T02:11:54.887Z,632.00
2023-04-11T02:12:54.874Z,635.00
2023-04-11T02:13:54.863Z,638.00
2023-04-11T02:14:54.825Z,636.00
2023-04-11T02:15:54.842Z,637.00
2023-04-11T02:16:54.807Z,635.00
2023-04-11T02:17:54.892Z,629.00
2023-04-11T02:18:55.031Z,628.00
2023-04-11T02:19:54.754Z,637.00
2023-04-11T02:20:54.727Z,633.00
2023-04-11T02:21:54.721Z,633.00
2023-04-11T02:22:54.690Z,633.00
2023-04-11T02:23:54.673Z,634.00
2023-04-11T02:24:54.660Z,634.00
2023-04-11T02:25:54.640Z,634.00
2023-04-11T02:26:54.612Z,634.00
2023-04-11T02:27:54.613Z,632.00
2023-04-11T02:28:54.721Z,643.00
2023-04-11T02:29:54.568Z,639.00
2023-04-11T02:30:54.610Z,635.00
2023-04-11T02:31:54.595Z,632.00
2023-04-11T02:32:54.579Z,634.00
2023-04-11T02:33:54.519Z,629.00
2023-04-11T02:34:54.503Z,633.00
2023-04-11T02:35:54.527Z,624.00
2023-04-11T02:36:54.472Z,626.00
2023-04-11T02:37:54.466Z,627.00
2023-04-11T02:38:54.713Z,626.00
2023-04-11T02:39:54.423Z,631.00
2023-04-11T02:40:54.410Z,628.00
2023-04-11T02:41:54.400Z,624.00
2023-04-11T02:42:54.392Z,625.00
2023-04-11T02:43:54.408Z,625.00
2023-04-11T02:44:54.356Z,625.00
2023-04-11T02:46:02.070Z,629.00
2023-04-11T02:46:55.384Z,625.00
2023-04-11T02:47:54.381Z,625.00
2023-04-11T02:48:54.535Z,628.00
2023-04-11T02:49:54.331Z,627.00
2023-04-11T02:50:54.336Z,627.00
2023-04-11T02:51:54.297Z,626.00
2023-04-11T02:52:54.284Z,621.00
2023-04-11T02:53:54.268Z,628.00
2023-04-11T02:54:54.236Z,631.00
2023-04-11T02:55:54.226Z,631.00
2023-04-11T02:56:54.203Z,624.00
2023-04-11T02:57:54.202Z,624.00
2023-04-11T02:58:54.413Z,626.00
2023-04-11T02:59:54.152Z,625.00
2023-04-11T03:00:54.145Z,623.00
2023-04-11T03:01:54.185Z,630.00
2023-04-11T03:02:54.219Z,624.00
2023-04-11T03:03:54.143Z,624.00
2023-04-11T03:04:54.051Z,627.00
2023-04-11T03:05:54.071Z,631.00
2023-04-11T03:06:54.050Z,627.00
2023-04-11T03:07:54.003Z,624.00
2023-04-11T03:08:54.294Z,624.00
2023-04-11T03:09:53.978Z,623.00
2023-04-11T03:10:53.952Z,621.00
2023-04-11T03:11:53.943Z,625.00
2023-04-11T03:12:53.929Z,624.00
2023-04-11T03:13:54.005Z,615.00
2023-04-11T03:14:53.896Z,621.00
2023-04-11T03:15:53.912Z,617.00
2023-04-11T03:16:53.864Z,613.00
2023-04-11T03:17:53.882Z,618.00
2023-04-11T03:18:54.119Z,617.00
2023-04-11T03:19:53.852Z,619.00
2023-04-11T03:20:53.802Z,620.00
2023-04-11T03:21:53.797Z,616.00
2023-04-11T03:22:53.795Z,617.00
2023-04-11T03:23:53.773Z,617.00
2023-04-11T03:24:53.757Z,624.00
2023-04-11T03:25:53.742Z,619.00
2023-04-11T03:26:53.736Z,622.00
2023-04-11T03:27:53.718Z,620.00
2023-04-11T03:28:54.034Z,620.00
2023-04-11T03:29:53.718Z,621.00
2023-04-11T03:30:53.740Z,620.00
2023-04-11T03:31:53.694Z,618.00
2023-04-11T03:32:53.733Z,621.00
2023-04-11T03:33:53.702Z,618.00
2023-04-11T03:34:53.683Z,613.00
2023-04-11T03:35:53.736Z,616.00
2023-04-11T03:36:53.695Z,616.00
2023-04-11T03:37:53.664Z,617.00
2023-04-11T03:38:53.781Z,617.00
2023-04-11T03:39:53.659Z,614.00
2023-04-11T03:40:53.668Z,612.00
2023-04-11T03:41:53.666Z,615.00
2023-04-11T03:42:53.666Z,614.00
2023-04-11T03:43:53.683Z,610.00
2023-04-11T03:44:53.667Z,619.00
2023-04-11T03:45:53.750Z,608.00
2023-04-11T03:46:53.788Z,615.00
2023-04-11T03:47:53.691Z,616.00
2023-04-11T03:48:53.707Z,618.00
2023-04-11T03:49:53.661Z,598.00
2023-04-11T03:50:53.669Z,593.00
2023-04-11T03:51:53.699Z,610.00
2023-04-11T03:52:53.660Z,606.00
2023-04-11T03:53:53.682Z,609.00
2023-04-11T03:54:53.685Z,608.00
2023-04-11T03:55:53.664Z,602.00
2023-04-11T03:56:53.681Z,605.00
2023-04-11T03:57:53.660Z,608.00
2023-04-11T03:58:53.815Z,606.00
2023-04-11T03:59:53.656Z,602.00
2023-04-11T04:00:53.661Z,608.00
2023-04-11T04:01:53.692Z,613.00
2023-04-11T04:02:53.799Z,607.00
2023-04-11T04:03:54.097Z,611.00
2023-04-11T04:04:53.717Z,611.00
2023-04-11T04:05:53.651Z,609.00
2023-04-11T04:06:53.635Z,612.00
2023-04-11T04:07:55.807Z,614.00
2023-04-11T04:08:53.628Z,608.00
2023-04-11T04:09:53.595Z,612.00
2023-04-11T04:10:53.588Z,613.00
2023-04-11T04:11:53.582Z,610.00
2023-04-11T04:12:53.581Z,610.00
2023-04-11T04:13:53.800Z,610.00
2023-04-11T04:14:53.586Z,614.00
2023-04-11T04:15:53.568Z,619.00
2023-04-11T04:16:53.652Z,618.00
2023-04-11T04:17:53.592Z,618.00
2023-04-11T04:18:53.556Z,612.00
2023-04-11T04:19:53.552Z,615.00
2023-04-11T04:20:53.555Z,608.00
2023-04-11T04:21:53.544Z,609.00
2023-04-11T04:22:53.551Z,610.00
2023-04-11T04:23:53.780Z,605.00
2023-04-11T04:24:53.532Z,603.00
2023-04-11T04:25:53.533Z,613.00
2023-04-11T04:26:53.530Z,611.00
2023-04-11T04:27:53.538Z,610.00
2023-04-11T04:28:53.530Z,607.00
2023-04-11T04:30:03.603Z,612.00
2023-04-11T04:30:54.623Z,613.00
2023-04-11T04:31:53.570Z,611.00
2023-04-11T04:32:53.539Z,612.00
2023-04-11T04:33:53.686Z,613.00
2023-04-11T04:34:53.517Z,613.00
2023-04-11T04:35:53.570Z,615.00
2023-04-11T04:36:53.526Z,620.00
2023-04-11T04:37:53.512Z,613.00
2023-04-11T04:38:53.521Z,613.00
2023-04-11T04:39:53.522Z,615.00
2023-04-11T04:40:53.521Z,613.00
2023-04-11T04:41:53.503Z,614.00
2023-04-11T04:42:53.504Z,613.00
2023-04-11T04:43:53.605Z,615.00
2023-04-11T04:44:53.491Z,619.00
2023-04-11T04:45:53.514Z,613.00
2023-04-11T04:46:53.518Z,614.00
2023-04-11T04:47:53.519Z,613.00
2023-04-11T04:48:53.497Z,615.00
2023-04-11T04:49:53.485Z,615.00
2023-04-11T04:50:53.519Z,617.00
2023-04-11T04:51:53.495Z,621.00
2023-04-11T04:52:53.499Z,620.00
2023-04-11T04:53:53.580Z,612.00
2023-04-11T04:54:53.546Z,605.00
2023-04-11T04:55:53.519Z,615.00
2023-04-11T04:56:53.521Z,611.00
2023-04-11T04:57:53.531Z,612.00
2023-04-11T04:58:53.541Z,612.00
2023-04-11T04:59:53.551Z,612.00
2023-04-11T05:00:53.605Z,613.00
2023-04-11T05:01:53.750Z,616.00
2023-04-11T05:02:53.677Z,616.00
2023-04-11T05:03:53.651Z,613.00
2023-04-11T05:04:53.557Z,610.00
2023-04-11T05:05:53.557Z,617.00
2023-04-11T05:06:53.566Z,615.00
2023-04-11T05:07:53.562Z,603.00
2023-04-11T05:08:53.574Z,618.00
2023-04-11T05:09:53.595Z,621.00
2023-04-11T05:10:53.578Z,622.00
2023-04-11T05:11:53.609Z,617.00
2023-04-11T05:12:53.590Z,616.00
2023-04-11T05:13:53.910Z,613.00
2023-04-11T05:14:53.602Z,606.00
2023-04-11T05:15:53.595Z,616.00
2023-04-11T05:16:53.649Z,620.00
2023-04-11T05:17:53.639Z,612.00
2023-04-11T05:18:53.618Z,612.00
2023-04-11T05:19:53.608Z,612.00
2023-04-11T05:20:53.610Z,613.00
2023-04-11T05:21:53.606Z,606.00
2023-04-11T05:22:53.640Z,607.00
2023-04-11T05:23:53.902Z,615.00
2023-04-11T05:24:53.614Z,610.00
2023-04-11T05:25:53.620Z,612.00
2023-04-11T05:26:53.616Z,607.00
2023-04-11T05:27:53.617Z,613.00
2023-04-11T05:28:53.650Z,618.00
2023-04-11T05:29:53.622Z,618.00
2023-04-11T05:30:53.660Z,618.00
2023-04-11T05:31:53.640Z,615.00
2023-04-11T05:32:53.662Z,610.00
2023-04-11T05:33:53.796Z,615.00
2023-04-11T05:34:55.266Z,626.00
2023-04-11T05:35:53.686Z,627.00
2023-04-11T05:36:53.651Z,631.00
2023-04-11T05:37:53.646Z,643.00
2023-04-11T05:38:53.706Z,667.00
2023-04-11T05:39:53.649Z,765.00
2023-04-11T05:40:53.652Z,824.00
2023-04-11T05:41:53.659Z,851.00
2023-04-11T05:42:53.682Z,886.00
2023-04-11T05:43:53.908Z,954.00
2023-04-11T05:44:53.692Z,1440.00
2023-04-11T05:45:53.794Z,1412.00
2023-04-11T05:46:53.701Z,1414.00
2023-04-11T05:47:53.872Z,1433.00
2023-04-11T05:48:53.793Z,1444.00
2023-04-11T05:49:53.699Z,1467.00
2023-04-11T05:50:53.702Z,1468.00
2023-04-11T05:51:53.704Z,1497.00
2023-04-11T05:52:53.699Z,1513.00
2023-04-11T05:53:54.028Z,1530.00
2023-04-11T05:54:53.972Z,1532.00
2023-04-11T05:55:53.744Z,1558.00
2023-04-11T05:56:53.742Z,1570.00
2023-04-11T05:57:53.724Z,1575.00
2023-04-11T05:58:53.713Z,1581.00
2023-04-11T05:59:53.719Z,1566.00
2023-04-11T06:00:53.719Z,1545.00
2023-04-11T06:01:53.787Z,1554.00
2023-04-11T06:02:53.761Z,1568.00
2023-04-11T06:03:54.137Z,1548.00
2023-04-11T06:04:53.764Z,1547.00
2023-04-11T06:05:53.756Z,1527.00
2023-04-11T06:06:53.702Z,1515.00
2023-04-11T06:07:53.692Z,1500.00
2023-04-11T06:08:53.693Z,1493.00
2023-04-11T06:09:53.766Z,1468.00
2023-04-11T06:10:53.697Z,1471.00
2023-04-11T06:11:53.679Z,1465.00
2023-04-11T06:12:53.697Z,1460.00
2023-04-11T06:13:53.747Z,1438.00
2023-04-11T06:14:53.702Z,1425.00
2023-04-11T06:15:53.743Z,1423.00
2023-04-11T06:16:53.702Z,1415.00
2023-04-11T06:17:53.738Z,1399.00
2023-04-11T06:18:53.694Z,1388.00
2023-04-11T06:19:53.689Z,1387.00
2023-04-11T06:20:53.692Z,1362.00
2023-04-11T06:21:53.680Z,1371.00
2023-04-11T06:22:53.703Z,1364.00
2023-04-11T06:23:53.917Z,1351.00
2023-04-11T06:24:53.688Z,1345.00
2023-04-11T06:25:53.717Z,1335.00
2023-04-11T06:26:53.689Z,1313.00
2023-04-11T06:27:53.694Z,1306.00
2023-04-11T06:28:53.733Z,1295.00
2023-04-11T06:29:53.735Z,1300.00
2023-04-11T06:30:53.733Z,1286.00
2023-04-11T06:31:53.702Z,1267.00
2023-04-11T06:32:53.761Z,1275.00
2023-04-11T06:33:53.741Z,1268.00
2023-04-11T06:34:53.754Z,1263.00
2023-04-11T06:35:53.841Z,1253.00
2023-04-11T06:36:53.845Z,1251.00
2023-04-11T06:37:53.708Z,1252.00
2023-04-11T06:38:53.715Z,1252.00
2023-04-11T06:39:53.736Z,1252.00
2023-04-11T06:40:53.704Z,1252.00
2023-04-11T06:41:53.787Z,1252.00
2023-04-11T06:42:53.713Z,1252.00
2023-04-11T06:43:53.757Z,1236.00
2023-04-11T06:44:53.837Z,1234.00
2023-04-11T06:45:53.690Z,1343.00
2023-04-11T06:46:53.725Z,1359.00
2023-04-11T06:47:53.714Z,1384.00
2023-04-11T06:48:53.663Z,1411.00
2023-04-11T06:49:53.663Z,1426.00
2023-04-11T06:50:53.633Z,1459.00
2023-04-11T06:51:53.636Z,1482.00
2023-04-11T06:52:53.703Z,1520.00
2023-04-11T06:53:53.787Z,1548.00
2023-04-11T06:54:53.638Z,1583.00
2023-04-11T06:55:53.604Z,1615.00
2023-04-11T06:56:53.650Z,1616.00
2023-04-11T06:57:53.571Z,1624.00
2023-04-11T06:58:53.564Z,1651.00
2023-04-11T06:59:53.568Z,1695.00
2023-04-11T07:00:53.559Z,1760.00
2023-04-11T07:01:53.596Z,1622.00
2023-04-11T07:02:53.639Z,1649.00
2023-04-11T07:03:53.793Z,1701.00
2023-04-11T07:04:53.571Z,1786.00
2023-04-11T07:05:53.509Z,1921.00
2023-04-11T07:06:53.598Z,1949.00
2023-04-11T07:07:53.561Z,1989.00
2023-04-11T07:08:53.498Z,2016.00
2023-04-11T07:09:53.496Z,2043.00
2023-04-11T07:10:53.475Z,2044.00
2023-04-11T07:11:53.467Z,2051.00
2023-04-11T07:12:53.453Z,2046.00
2023-04-11T07:13:53.663Z,2059.00
2023-04-11T07:14:53.529Z,2087.00
2023-04-11T07:15:53.467Z,2048.00
2023-04-11T07:16:53.415Z,2069.00
2023-04-11T07:17:53.451Z,2108.00
2023-04-11T07:18:53.446Z,2179.00
2023-04-11T07:19:53.398Z,2276.00
2023-04-11T07:20:53.378Z,2052.00
2023-04-11T07:21:53.389Z,2087.00
2023-04-11T07:22:53.446Z,2147.00
2023-04-11T07:23:53.590Z,2238.00
2023-04-11T07:24:53.327Z,2374.00
2023-04-11T07:25:53.334Z,2405.00
2023-04-11T07:26:53.344Z,2454.00
2023-04-11T07:27:53.295Z,2443.00
2023-04-11T07:28:53.327Z,2475.00
2023-04-11T07:29:53.291Z,2474.00
2023-04-11T07:30:53.310Z,2471.00
2023-04-11T07:31:53.362Z,2503.00
2023-04-11T07:32:53.288Z,2527.00
2023-04-11T07:33:53.326Z,2551.00
2023-04-11T07:34:53.309Z,2550.00
2023-04-11T07:35:53.395Z,2570.00
2023-04-11T07:36:53.365Z,2582.00
2023-04-11T07:37:53.392Z,2591.00
2023-04-11T07:38:53.531Z,2610.00
2023-04-11T07:39:53.466Z,2621.00
2023-04-11T07:40:53.471Z,2580.00
2023-04-11T07:41:53.456Z,2582.00
2023-04-11T07:42:53.470Z,2581.00
2023-04-11T07:43:53.458Z,2582.00
2023-04-11T07:44:53.423Z,2593.00
2023-04-11T07:45:53.472Z,2589.00
2023-04-11T07:46:53.453Z,2582.00
2023-04-11T07:47:53.445Z,2587.00
2023-04-11T07:48:53.401Z,2580.00
2023-04-11T07:49:53.924Z,2591.00
2023-04-11T07:50:53.401Z,2604.00
2023-04-11T07:51:53.388Z,2620.00
2023-04-11T07:52:53.361Z,2621.00
2023-04-11T07:53:53.421Z,2621.00
2023-04-11T07:54:53.386Z,2431.00
2023-04-11T07:55:53.358Z,2011.00
2023-04-11T07:56:53.373Z,2192.00
2023-04-11T07:57:53.350Z,2141.00
2023-04-11T07:58:53.415Z,1521.00
2023-04-11T07:59:53.339Z,1299.00
2023-04-11T08:00:53.401Z,1363.00
2023-04-11T08:01:53.462Z,1169.00
2023-04-11T08:02:53.586Z,1314.00
2023-04-11T08:03:53.373Z,1124.00
2023-04-11T08:04:53.462Z,713.00
2023-04-11T08:05:53.299Z,621.00
2023-04-11T08:06:53.286Z,647.00
2023-04-11T08:07:53.297Z,400.00
2023-04-11T08:08:53.286Z,415.00
2023-04-11T08:09:53.313Z,442.00
2023-04-11T08:10:53.320Z,549.00
2023-04-11T08:11:53.351Z,495.00
2023-04-11T08:12:53.311Z,513.00
2023-04-11T08:13:53.345Z,400.00
2023-04-11T08:14:53.342Z,435.00
2023-04-11T08:15:53.344Z,439.00
2023-04-11T08:16:53.400Z,400.00
2023-04-11T08:17:53.426Z,400.00
2023-04-11T08:18:53.353Z,400.00
2023-04-11T08:19:53.361Z,400.00
2023-04-11T08:20:53.377Z,400.00
2023-04-11T08:21:53.385Z,400.00
2023-04-11T08:22:53.393Z,400.00
2023-04-11T08:23:53.432Z,400.00
2023-04-11T08:24:53.434Z,400.00
2023-04-11T08:25:53.477Z,400.00
2023-04-11T08:26:53.554Z,400.00
2023-04-11T08:27:53.478Z,400.00
2023-04-11T08:28:53.501Z,400.00
2023-04-11T08:29:53.527Z,400.00
2023-04-11T08:30:53.604Z,400.00
2023-04-11T08:31:53.577Z,400.00
2023-04-11T08:32:53.633Z,400.00
2023-04-11T08:33:53.597Z,502.00
2023-04-11T08:34:53.646Z,608.00
2023-04-11T08:35:53.634Z,722.00
2023-04-11T08:36:53.698Z,884.00
2023-04-11T08:37:53.674Z,1036.00
2023-04-11T08:38:53.738Z,1157.00
2023-04-11T08:39:53.796Z,1271.00
2023-04-11T08:40:53.856Z,1337.00
2023-04-11T08:41:53.886Z,1440.00
2023-04-11T08:42:53.921Z,1509.00
2023-04-11T08:43:54.490Z,1578.00
2023-04-11T08:44:54.029Z,1635.00
2023-04-11T08:45:54.101Z,1686.00
2023-04-11T08:46:54.118Z,1738.00
2023-04-11T08:47:54.261Z,1791.00
2023-04-11T08:48:54.133Z,1837.00
2023-04-11T08:49:54.297Z,1894.00
2023-04-11T08:50:54.190Z,1889.00
2023-04-11T08:51:54.201Z,1922.00
2023-04-11T08:52:54.260Z,2020.00
2023-04-11T08:53:54.511Z,2081.00
2023-04-11T08:54:54.263Z,2151.00
2023-04-11T08:55:54.263Z,2233.00
2023-04-11T08:56:54.332Z,2293.00
2023-04-11T08:57:54.277Z,2356.00
2023-04-11T08:58:54.264Z,2422.00
2023-04-11T08:59:54.462Z,2426.00
2023-04-11T09:00:54.443Z,2447.00
2023-04-11T09:01:54.322Z,2507.00
2023-04-11T09:02:54.296Z,2618.00
2023-04-11T09:03:55.193Z,2790.00
2023-04-11T09:04:54.278Z,2866.00
2023-04-11T09:05:54.244Z,2906.00
2023-04-11T09:06:54.223Z,2953.00
2023-04-11T09:07:54.221Z,2955.00
2023-04-11T09:08:54.218Z,2965.00
2023-04-11T09:09:54.201Z,3000.00
2023-04-11T09:10:54.198Z,3049.00
2023-04-11T09:11:54.211Z,3161.00
2023-04-11T09:12:54.191Z,3180.00
2023-04-11T09:13:54.520Z,3206.00
2023-04-11T09:14:54.193Z,3256.00
2023-04-11T09:15:54.204Z,3291.00
2023-04-11T09:16:54.167Z,3301.00
2023-04-11T09:17:54.175Z,3387.00
2023-04-11T09:18:54.218Z,3448.00
2023-04-11T09:19:54.139Z,3462.00
2023-04-11T09:20:54.113Z,3518.00
2023-04-11T09:21:54.132Z,3540.00
2023-04-11T09:22:54.104Z,3533.00
2023-04-11T09:23:54.186Z,3568.00
2023-04-11T09:24:54.066Z,3579.00
2023-04-11T09:25:54.074Z,3593.00
2023-04-11T09:26:54.054Z,3620.00
2023-04-11T09:27:54.061Z,3670.00
2023-04-11T09:28:54.299Z,3676.00
2023-04-11T09:29:54.093Z,3690.00
2023-04-11T09:30:54.151Z,3713.00
2023-04-11T09:31:54.133Z,3696.00
2023-04-11T09:32:54.219Z,3689.00
2023-04-11T09:33:54.309Z,3694.00
2023-04-11T09:34:54.197Z,3670.00
2023-04-11T09:35:54.293Z,3682.00
2023-04-11T09:36:54.440Z,3678.00
2023-04-11T09:37:54.363Z,3706.00
2023-04-11T09:38:54.295Z,3728.00
2023-04-11T09:39:54.353Z,3675.00
2023-04-11T09:40:54.350Z,3705.00
2023-04-11T09:41:54.381Z,3645.00
2023-04-11T09:42:54.871Z,3664.00
2023-04-11T09:43:54.627Z,3625.00
2023-04-11T09:44:54.396Z,3619.00
2023-04-11T09:45:54.921Z,3609.00
2023-04-11T09:46:54.507Z,3609.00
2023-04-11T09:47:54.431Z,3601.00
2023-04-11T09:48:54.383Z,3569.00
2023-04-11T09:49:54.353Z,3563.00
2023-04-11T09:50:54.363Z,3569.00
2023-04-11T09:51:54.362Z,3572.00
2023-04-11T09:52:55.934Z,3526.00
2023-04-11T09:53:54.632Z,3529.00
2023-04-11T09:54:54.321Z,3522.00
2023-04-11T09:55:54.312Z,3514.00
2023-04-11T09:56:54.304Z,3467.00
2023-04-11T09:57:54.311Z,3451.00
2023-04-11T09:58:54.530Z,3442.00
2023-04-11T09:59:54.270Z,3452.00
2023-04-11T10:00:54.438Z,3452.00
2023-04-11T10:01:54.527Z,3448.00
2023-04-11T10:02:54.515Z,3439.00
2023-04-11T10:03:54.431Z,3444.00
2023-04-11T10:04:54.249Z,3431.00
2023-04-11T10:05:54.271Z,3427.00
2023-04-11T10:06:54.219Z,3407.00
2023-04-11T10:07:54.204Z,3398.00
2023-04-11T10:08:54.565Z,3395.00
2023-04-11T10:09:54.183Z,3390.00
2023-04-11T10:10:54.184Z,3345.00
2023-04-11T10:11:54.188Z,3354.00
2023-04-11T10:12:54.159Z,3365.00
2023-04-11T10:13:54.434Z,3319.00
2023-04-11T10:14:54.162Z,3342.00
2023-04-11T10:15:54.286Z,3343.00
2023-04-11T10:16:54.247Z,3313.00
2023-04-11T10:17:54.315Z,3328.00
2023-04-11T10:18:54.315Z,3320.00
2023-04-11T10:19:54.360Z,3321.00
2023-04-11T10:20:54.337Z,3296.00
2023-04-11T10:21:54.556Z,3321.00
2023-04-11T10:22:54.373Z,3306.00
2023-04-11T10:23:54.429Z,3278.00
2023-04-11T10:24:55.053Z,3294.00
2023-04-11T10:25:54.311Z,3275.00
2023-04-11T10:26:54.309Z,3278.00
2023-04-11T10:27:54.301Z,3283.00
2023-04-11T10:28:54.255Z,3266.00
2023-04-11T10:29:54.296Z,3274.00
2023-04-11T10:30:54.264Z,3243.00
2023-04-11T10:31:54.294Z,3260.00
2023-04-11T10:32:54.275Z,3243.00
2023-04-11T10:33:54.561Z,3250.00
2023-04-11T10:34:54.312Z,3223.00
2023-04-11T10:35:54.370Z,3212.00
2023-04-11T10:36:54.394Z,3217.00
2023-04-11T10:37:54.439Z,3203.00
2023-04-11T10:38:54.612Z,3207.00
2023-04-11T10:39:54.538Z,3196.00
2023-04-11T10:40:54.574Z,3178.00
2023-04-11T10:41:54.654Z,3179.00
2023-04-11T10:42:54.585Z,3166.00
2023-04-11T10:43:54.568Z,3182.00
2023-04-11T10:44:54.685Z,3182.00
2023-04-11T10:45:54.556Z,3179.00
2023-04-11T10:46:54.713Z,3159.00
2023-04-11T10:47:54.582Z,3179.00
2023-04-11T10:48:54.551Z,3180.00
2023-04-11T10:49:54.565Z,3180.00
2023-04-11T10:50:54.537Z,3173.00
2023-04-11T10:51:54.562Z,3177.00
2023-04-11T10:52:54.528Z,3157.00
2023-04-11T10:53:54.601Z,3158.00
2023-04-11T10:54:54.525Z,3158.00
2023-04-11T10:55:54.499Z,3160.00
2023-04-11T10:56:54.524Z,3133.00
2023-04-11T10:57:54.499Z,3137.00
2023-04-11T10:58:54.467Z,3101.00
2023-04-11T10:59:54.505Z,3092.00
2023-04-11T11:00:54.523Z,3050.00
2023-04-11T11:01:54.551Z,3051.00
2023-04-11T11:02:54.563Z,3041.00
2023-04-11T11:03:54.646Z,3041.00
2023-04-11T11:04:54.576Z,3043.00
2023-04-11T11:05:54.416Z,3036.00
2023-04-11T11:06:57.196Z,3037.00
2023-04-11T11:07:54.417Z,3031.00
2023-04-11T11:08:54.411Z,3030.00
2023-04-11T11:09:54.386Z,3023.00
2023-04-11T11:10:55.370Z,3013.00
2023-04-11T11:11:54.386Z,3014.00
2023-04-11T11:12:54.379Z,3012.00
2023-04-11T11:13:54.543Z,3013.00
2023-04-11T11:14:54.371Z,3017.00
2023-04-11T11:15:54.364Z,3014.00
2023-04-11T11:16:54.441Z,3006.00
2023-04-11T11:17:54.412Z,2985.00
2023-04-11T11:18:54.366Z,2976.00
2023-04-11T11:19:54.422Z,2982.00
2023-04-11T11:20:54.365Z,2975.00
2023-04-11T11:21:54.336Z,2976.00
2023-04-11T11:22:54.363Z,2977.00
2023-04-11T11:23:54.632Z,2961.00
2023-04-11T11:24:54.337Z,2957.00
2023-04-11T11:25:54.315Z,2961.00
2023-04-11T11:26:54.322Z,2960.00
2023-04-11T11:27:54.492Z,2936.00
2023-04-11T11:28:54.500Z,2961.00
2023-04-11T11:29:54.315Z,2943.00
2023-04-11T11:30:55.649Z,2920.00
2023-04-11T11:31:54.298Z,2904.00
2023-04-11T11:32:54.305Z,2906.00
2023-04-11T11:33:58.245Z,2905.00
2023-04-11T11:34:55.339Z,2906.00
2023-04-11T11:35:54.312Z,2911.00
2023-04-11T11:36:54.287Z,2916.00
2023-04-11T11:37:54.259Z,2916.00
2023-04-11T11:38:54.480Z,2903.00
2023-04-11T11:39:54.276Z,2885.00
2023-04-11T11:40:54.245Z,2905.00
2023-04-11T11:41:54.252Z,2910.00
2023-04-11T11:42:54.238Z,2905.00
2023-04-11T11:43:54.416Z,2891.00
2023-04-11T11:44:54.214Z,2891.00
2023-04-11T11:45:54.409Z,2883.00
2023-04-11T11:46:54.281Z,2864.00
2023-04-11T11:47:54.375Z,2893.00
2023-04-11T11:48:54.418Z,2878.00
2023-04-11T11:49:54.498Z,2883.00
2023-04-11T11:50:54.451Z,2883.00
2023-04-11T11:51:54.503Z,2868.00
2023-04-11T11:52:54.574Z,2860.00
2023-04-11T11:53:54.596Z,2864.00
2023-04-11T11:54:54.595Z,2864.00
2023-04-11T11:55:54.600Z,2859.00
2023-04-11T11:56:54.632Z,2851.00
2023-04-11T11:57:54.581Z,2830.00
2023-04-11T11:58:54.620Z,2830.00
2023-04-11T11:59:54.726Z,2821.00
2023-04-11T12:00:54.576Z,2795.00
2023-04-11T12:01:54.570Z,2799.00
2023-04-11T12:02:54.864Z,2805.00
2023-04-11T12:03:54.607Z,2782.00
2023-04-11T12:04:54.689Z,2767.00
2023-04-11T12:05:54.507Z,2765.00
2023-04-11T12:06:54.578Z,2752.00
2023-04-11T12:07:54.685Z,2751.00
2023-04-11T12:08:54.632Z,2731.00
2023-04-11T12:09:54.686Z,2726.00
2023-04-11T12:10:54.737Z,2735.00
2023-04-11T12:11:54.785Z,2752.00
2023-04-11T12:12:54.824Z,2733.00
2023-04-11T12:13:55.105Z,2733.00
2023-04-11T12:14:54.912Z,2732.00
2023-04-11T12:15:55.098Z,2705.00
2023-04-11T12:16:55.010Z,2710.00
2023-04-11T12:17:55.112Z,2694.00